Airfield :
LOGIN :

Register | Disclaimer

   EN    FR    IT 

 










Legend :    VFR   Marginal VFR   IFR   Intensive IFR   Very Intensive IFR
Visi :
Ceiling :
>= 8 km
>= 3000ft
5 to 8 km
1000 to 3000 ft
1500m to 5 km
500 to 1000 ft
800 to 1500m
200 to 500 ft
< 800m
< 200 ft
Symbols :   Thunderstorms  Fog  Heavy snow  Heavy precipitations  Wind > 20 kt
SIGMETs :     Misc.  Thunderstorms  Icing  Turbulence  Mountain Waves  Volcanic Ashes






- Airport Elevation : 584 ft


LFPV - Villacoublay Vélizy

CURRENT METAR :
  • 270630Z AUTO 17015KT 140V200 5000 RA BR OVC007/// 03/03 Q0999 TEMPO BKN002 BECMG 18015G30KT RASN

EXPIRED METARs :
  • 270600Z AUTO 17014KT 7000 -RA OVC007/// 03/03 Q1000 TEMPO BKN002 BECMG 18015G30KT 3000 RASN
  • 270530Z AUTO 17013KT 140V200 9000 -RA OVC007/// 03/03 Q1001 TEMPO BKN002 BECMG 18015G30KT 3000 RASN
  • 270500Z AUTO 17010KT 9000 -RA SCT010/// BKN016/// BKN021/// 03/02 Q1003 TEMPO BKN002 BECMG 18015G30KT 3000 RASN
  • 270430Z AUTO 17009KT 9999 -RA FEW029/// SCT049/// BKN060/// 03/02 Q1004 TEMPO BKN002 BECMG 18015G30KT 3000 RASN
  • 270400Z AUTO 18010KT 9999 -RA FEW034/// SCT060/// BKN076/// 03/01 Q1005 NOSIG

TAF TAF LFPV
Valid from the 27 at 03:00 until the 28 at 03:00 UTC


270200Z 2703/2803 19006KT CAVOK
BECMG 2706/2708 18015G30KT 3000 RASN BKN007
TEMPO 2706/2709 BKN002
BECMG 2711/2713 27020G45KT 9999 NSW BKN015
BECMG 2715/2716 32015G35KT CAVOK
BECMG 2718/2719 27005KT



MET'MAP, your aeronautical weather chart ! - Copyright ORBIFLY December 2007 - Disclaimer

ORBIFLY MET'MAP TEAM :

Programming & Development : Alexandra Zaïnal
Concept & original design : Baudouin d'Aumeries
Assistance for programming : Marc-Olivier Méhu
Technical & hardware support : Manuel Goepfert

Contact : metmap@orbifly.com




SOURCES & CREDITS :

   NOAA